Time;durP1;ratioP1;P1;durP2;ratioP2;P2;SDS_P1;SDS_P2;PMS_P1;PMS_P2;Temp;Humidity;BMP_temperature;BMP_pressure;BME280_temperature;BME280_humidity;BME280_pressure;Samples;Min_cycle;Max_cycle;Signal;HPM_P1;HPM_P2
2023/10/26 00:02:20;;;;;;;;;;;;;;;;;;5032962;28;19993;-69
2023/10/26 00:04:46;;;;;;;;;;;;;;;;;;5031194;28;19923;-69
2023/10/26 00:07:14;;;;;;;;;;;;;;;;;;5040422;28;20012;-69
2023/10/26 00:09:39;;;;;;;;;;;;;;;;;;5063465;28;19915;-69
2023/10/26 00:12:05;;;;;;;;;;;;;;;;;;5047611;28;19917;-67
2023/10/26 00:14:33;;;;;;;;;;;;;;;;;;5052257;28;19913;-68
2023/10/26 00:16:59;;;;;;;;;;;;;;;;;;5047920;28;19955;-67
2023/10/26 00:19:25;;;;;;;;;;;;;;;;;;5050476;28;19951;-68
2023/10/26 00:21:50;;;;;;;;;;;;;;;;;;5021492;28;20256;-67
2023/10/26 00:24:16;;;;;;;;;;;;;;;;;;5044507;28;20011;-67
2023/10/26 00:26:42;;;;;;;;;;;;;;;;;;5033543;28;19919;-67
2023/10/26 00:29:08;;;;;;;;;;;;;;;;;;5036611;28;20556;-67
2023/10/26 00:31:34;;;;;;;;;;;;;;;;;;5043689;28;19968;-67
2023/10/26 00:34:00;;;;;;;;;;;;;;;;;;5046110;28;20007;-67
2023/10/26 00:36:26;;;;;;;;;;;;;;;;;;5051578;28;19943;-67
2023/10/26 00:38:52;;;;;;;;;;;;;;;;;;5041430;28;20005;-67
2023/10/26 00:41:18;;;;;;;;;;;;;;;;;;5049213;28;20008;-67
2023/10/26 00:43:45;;;;;;;;;;;;;;;;;;5055202;28;20368;-67
2023/10/26 00:46:11;;;;;;;;;;;;;;;;;;5036569;28;19927;-67
2023/10/26 00:48:37;;;;;;;;;;;;;;;;;;5054192;28;19909;-67
2023/10/26 00:51:03;;;;;;;;;;;;;;;;;;5046238;28;20007;-67
2023/10/26 00:53:29;;;;;;;;;;;;;;;;;;5050839;28;21687;-67
2023/10/26 00:55:55;;;;;;;;;;;;;;;;;;5049927;28;19962;-67
2023/10/26 00:58:21;;;;;;;;;;;;;;;;;;5053282;28;19917;-67
2023/10/26 01:00:46;;;;;;;;;;;;;;;;;;5049240;28;20462;-69
2023/10/26 01:03:13;;;;;;;;;;;;;;;;;;5054511;28;20004;-68
2023/10/26 01:05:39;;;;;;;;;;;;;;;;;;5046434;28;19924;-68
2023/10/26 01:08:05;;;;;;;;;;;;;;;;;;5049245;28;19975;-68
2023/10/26 01:10:31;;;;;;;;;;;;;;;;;;5044188;28;19932;-68
2023/10/26 01:12:57;;;;;;;;;;;;;;;;;;5045680;28;19966;-68
2023/10/26 01:15:23;;;;;;;;;;;;;;;;;;5051897;28;20353;-68
2023/10/26 01:17:49;;;;;;;;;;;;;;;;;;5039501;28;19964;-68
2023/10/26 01:20:14;;;;;;;;;;;;;;;;;;5053539;28;19917;-68
2023/10/26 01:22:41;;;;;;;;;;;;;;;;;;5053580;28;19999;-68
2023/10/26 01:25:07;;;;;;;;;;;;;;;;;;5048517;28;19991;-67
2023/10/26 01:27:32;;;;;;;;;;;;;;;;;;5044881;28;20450;-68
2023/10/26 01:29:58;;;;;;;;;;;;;;;;;;5050739;28;19921;-68
2023/10/26 01:32:24;;;;;;;;;;;;;;;;;;5048795;28;20626;-68
2023/10/26 01:34:50;;;;;;;;;;;;;;;;;;5048735;28;19953;-68
2023/10/26 01:37:16;;;;;;;;;;;;;;;;;;5036398;28;19920;-68
2023/10/26 01:39:42;;;;;;;;;;;;;;;;;;5043322;28;19956;-68
2023/10/26 01:42:10;;;;;;;;;;;;;;;;;;5044947;28;19952;-68
2023/10/26 01:44:35;;;;;;;;;;;;;;;;;;5049080;28;19962;-68
2023/10/26 01:47:01;;;;;;;;;;;;;;;;;;5035138;28;19917;-68
2023/10/26 01:49:27;;;;;;;;;;;;;;;;;;5050728;28;20423;-68
2023/10/26 01:51:53;;;;;;;;;;;;;;;;;;5047776;28;19917;-68
2023/10/26 01:54:19;;;;;;;;;;;;;;;;;;5050176;28;20288;-68
2023/10/26 01:56:45;;;;;;;;;;;;;;;;;;5052584;28;19971;-68
2023/10/26 01:59:11;;;;;;;;;;;;;;;;;;5052147;28;19913;-68
2023/10/26 02:01:37;;;;;;;;;;;;;;;;;;5036811;28;19917;-67
2023/10/26 02:04:03;;;;;;;;;;;;;;;;;;5048412;28;19916;-68
2023/10/26 02:06:28;;;;;;;;;;;;;;;;;;5050362;28;20022;-68
2023/10/26 02:08:54;;;;;;;;;;;;;;;;;;5054124;28;20283;-68
2023/10/26 02:11:20;;;;;;;;;;;;;;;;;;5051609;28;19916;-68
2023/10/26 02:13:46;;;;;;;;;;;;;;;;;;5051829;28;19939;-66
2023/10/26 02:16:13;;;;;;;;;;;;;;;;;;5050552;28;20003;-65
2023/10/26 02:18:39;;;;;;;;;;;;;;;;;;5052605;28;19916;-65
2023/10/26 02:21:05;;;;;;;;;;;;;;;;;;5050339;28;20250;-65
2023/10/26 02:23:31;;;;;;;;;;;;;;;;;;5049643;28;19932;-65
2023/10/26 02:25:57;;;;;;;;;;;;;;;;;;5036805;28;20373;-65
2023/10/26 02:28:24;;;;;;;;;;;;;;;;;;5039595;28;19967;-65
2023/10/26 02:30:49;;;;;;;;;;;;;;;;;;5038320;28;19916;-65
2023/10/26 02:33:15;;;;;;;;;;;;;;;;;;5050920;28;19965;-65
2023/10/26 02:35:41;;;;;;;;;;;;;;;;;;5026851;28;19956;-65
2023/10/26 02:38:07;;;;;;;;;;;;;;;;;;5047879;28;20002;-65
2023/10/26 02:40:33;;;;;;;;;;;;;;;;;;5045459;28;19991;-65
2023/10/26 02:42:59;;;;;;;;;;;;;;;;;;5050160;28;19970;-65
2023/10/26 02:45:25;;;;;;;;;;;;;;;;;;5049041;28;19974;-65
2023/10/26 02:47:51;;;;;;;;;;;;;;;;;;5047664;28;19998;-65
2023/10/26 02:50:17;;;;;;;;;;;;;;;;;;5040825;28;19921;-65
2023/10/26 02:52:43;;;;;;;;;;;;;;;;;;5033783;28;19913;-65
2023/10/26 02:55:09;;;;;;;;;;;;;;;;;;5040526;28;20012;-65
2023/10/26 02:57:35;;;;;;;;;;;;;;;;;;5034006;28;20361;-65
2023/10/26 03:00:00;;;;;;;;;;;;;;;;;;5052705;28;19940;-65
2023/10/26 03:02:26;;;;;;;;;;;;;;;;;;5042544;28;19956;-65
2023/10/26 03:04:52;;;;;;;;;;;;;;;;;;5036422;28;20006;-65
2023/10/26 03:07:24;;;;;;;;;;;;;;;;;;5035567;28;20420;-64
2023/10/26 03:09:50;;;;;;;;;;;;;;;;;;5035986;28;20288;-65
2023/10/26 03:12:16;;;;;;;;;;;;;;;;;;5041275;28;19944;-65
2023/10/26 03:14:42;;;;;;;;;;;;;;;;;;5046512;28;20847;-64
2023/10/26 03:17:09;;;;;;;;;;;;;;;;;;5040676;28;19964;-65
2023/10/26 03:19:35;;;;;;;;;;;;;;;;;;5041888;28;20000;-64
2023/10/26 03:22:01;;;;;;;;;;;;;;;;;;5036617;28;20348;-65
2023/10/26 03:24:27;;;;;;;;;;;;;;;;;;5042212;28;19929;-65
2023/10/26 03:26:53;;;;;;;;;;;;;;;;;;5045262;28;19917;-66
2023/10/26 03:29:21;;;;;;;;;;;;;;;;;;5044804;28;19963;-66
2023/10/26 03:31:47;;;;;;;;;;;;;;;;;;5048488;28;19921;-65
2023/10/26 03:34:13;;;;;;;;;;;;;;;;;;5039054;28;19935;-66
2023/10/26 03:36:38;;;;;;;;;;;;;;;;;;5051156;28;19923;-66
2023/10/26 03:39:04;;;;;;;;;;;;;;;;;;5049748;28;19913;-66
2023/10/26 03:41:30;;;;;;;;;;;;;;;;;;5052278;28;20014;-66
2023/10/26 03:43:56;;;;;;;;;;;;;;;;;;5053803;28;19916;-66
2023/10/26 03:46:22;;;;;;;;;;;;;;;;;;5048669;28;20019;-66
2023/10/26 03:48:50;;;;;;;;;;;;;;;;;;5045606;28;20465;-66
2023/10/26 03:51:16;;;;;;;;;;;;;;;;;;5042709;28;19953;-66
2023/10/26 03:53:42;;;;;;;;;;;;;;;;;;5042954;28;19974;-66
2023/10/26 03:56:08;;;;;;;;;;;;;;;;;;5047306;28;19917;-66
2023/10/26 03:58:33;;;;;;;;;;;;;;;;;;5045703;28;19917;-66
2023/10/26 04:01:00;;;;;;;;;;;;;;;;;;5045628;28;20360;-66
2023/10/26 04:03:26;;;;;;;;;;;;;;;;;;5040684;28;19928;-66
2023/10/26 04:05:52;;;;;;;;;;;;;;;;;;5044040;28;20289;-66
2023/10/26 04:08:18;;;;;;;;;;;;;;;;;;5047798;28;19923;-66
2023/10/26 04:10:44;;;;;;;;;;;;;;;;;;5051626;28;19952;-66
2023/10/26 04:13:10;;;;;;;;;;;;;;;;;;5045496;28;19913;-66
2023/10/26 04:15:36;;;;;;;;;;;;;;;;;;5046183;28;20008;-65
2023/10/26 04:18:02;;;;;;;;;;;;;;;;;;5046710;28;19913;-66
2023/10/26 04:20:28;;;;;;;;;;;;;;;;;;5052053;28;19919;-66
2023/10/26 04:22:54;;;;;;;;;;;;;;;;;;5055295;28;19917;-66
2023/10/26 04:25:21;;;;;;;;;;;;;;;;;;5051933;28;19921;-65
2023/10/26 04:27:47;;;;;;;;;;;;;;;;;;5036408;28;19920;-65
2023/10/26 04:30:14;;;;;;;;;;;;;;;;;;5046643;28;19913;-65
2023/10/26 04:32:42;;;;;;;;;;;;;;;;;;5047736;28;19920;-68
2023/10/26 04:35:08;;;;;;;;;;;;;;;;;;5045887;28;19974;-68
2023/10/26 04:37:34;;;;;;;;;;;;;;;;;;5041678;28;20416;-68
2023/10/26 04:39:59;;;;;;;;;;;;;;;;;;5044579;28;19964;-68
2023/10/26 04:42:25;;;;;;;;;;;;;;;;;;5050066;28;19951;-67
2023/10/26 04:44:51;;;;;;;;;;;;;;;;;;5051869;28;19939;-68
2023/10/26 04:47:17;;;;;;;;;;;;;;;;;;5049882;28;19913;-67
2023/10/26 04:49:43;;;;;;;;;;;;;;;;;;5049618;28;19931;-67
2023/10/26 04:52:14;;;;;;;;;;;;;;;;;;5051797;28;20282;-68
2023/10/26 04:54:40;;;;;;;;;;;;;;;;;;5047639;28;19921;-67
2023/10/26 04:57:05;;;;;;;;;;;;;;;;;;5042188;28;19919;-68
2023/10/26 04:59:31;;;;;;;;;;;;;;;;;;5046399;28;19952;-68
2023/10/26 05:01:57;;;;;;;;;;;;;;;;;;5045044;28;19939;-68
2023/10/26 05:04:23;;;;;;;;;;;;;;;;;;5050011;28;20258;-68
2023/10/26 05:06:50;;;;;;;;;;;;;;;;;;5053990;28;19916;-68
2023/10/26 05:09:16;;;;;;;;;;;;;;;;;;5053289;28;19913;-68
2023/10/26 05:11:42;;;;;;;;;;;;;;;;;;5041971;28;19917;-68
2023/10/26 05:14:09;;;;;;;;;;;;;;;;;;5043787;28;19963;-68
2023/10/26 05:16:34;;;;;;;;;;;;;;;;;;5041866;28;19955;-68
2023/10/26 05:19:00;;;;;;;;;;;;;;;;;;5043303;28;19999;-68
2023/10/26 05:21:26;;;;;;;;;;;;;;;;;;5041730;28;19956;-68
2023/10/26 05:23:52;;;;;;;;;;;;;;;;;;5047811;28;19925;-68
2023/10/26 05:26:18;;;;;;;;;;;;;;;;;;5053932;28;19962;-68
2023/10/26 05:28:44;;;;;;;;;;;;;;;;;;5051861;28;20292;-67
2023/10/26 05:31:10;;;;;;;;;;;;;;;;;;5046702;28;19928;-68
2023/10/26 05:33:36;;;;;;;;;;;;;;;;;;5042116;28;19917;-68
2023/10/26 05:36:02;;;;;;;;;;;;;;;;;;5054713;28;20345;-68
2023/10/26 05:38:28;;;;;;;;;;;;;;;;;;5043722;28;19924;-67
2023/10/26 05:40:54;;;;;;;;;;;;;;;;;;5043492;28;19917;-68
2023/10/26 05:43:20;;;;;;;;;;;;;;;;;;5045968;28;19964;-66
2023/10/26 05:45:46;;;;;;;;;;;;;;;;;;5035957;28;19919;-66
2023/10/26 05:48:11;;;;;;;;;;;;;;;;;;5044741;28;20384;-66
2023/10/26 05:50:41;;;;;;;;;;;;;;;;;;5052949;28;19917;-66
2023/10/26 05:53:07;;;;;;;;;;;;;;;;;;5039731;28;19913;-66
2023/10/26 05:55:33;;;;;;;;;;;;;;;;;;5051705;28;19921;-66
2023/10/26 05:57:59;;;;;;;;;;;;;;;;;;5049814;28;19968;-66
2023/10/26 06:00:25;;;;;;;;;;;;;;;;;;5049976;28;19958;-67
2023/10/26 06:02:51;;;;;;;;;;;;;;;;;;5045964;28;20274;-66
2023/10/26 06:05:17;;;;;;;;;;;;;;;;;;5047237;28;20010;-66
2023/10/26 06:07:43;;;;;;;;;;;;;;;;;;5051748;28;19956;-66
2023/10/26 06:10:10;;;;;;;;;;;;;;;;;;5052382;28;20356;-66
2023/10/26 06:12:36;;;;;;;;;;;;;;;;;;5045193;28;19921;-66
2023/10/26 06:15:02;;;;;;;;;;;;;;;;;;5053693;28;19923;-66
2023/10/26 06:17:28;;;;;;;;;;;;;;;;;;5053199;28;20421;-66
2023/10/26 06:19:54;;;;;;;;;;;;;;;;;;5037645;28;19958;-66
2023/10/26 06:22:19;;;;;;;;;;;;;;;;;;5039769;28;19943;-66
2023/10/26 06:24:45;;;;;;;;;;;;;;;;;;5036880;28;19925;-66
2023/10/26 06:27:11;;;;;;;;;;;;;;;;;;5047679;28;19963;-66
2023/10/26 06:29:37;;;;;;;;;;;;;;;;;;5047703;28;19962;-66
2023/10/26 06:32:03;;;;;;;;;;;;;;;;;;5046433;28;20361;-66
2023/10/26 06:34:29;;;;;;;;;;;;;;;;;;5045283;28;19923;-66
2023/10/26 06:36:55;;;;;;;;;;;;;;;;;;5037923;28;19913;-66
2023/10/26 06:39:21;;;;;;;;;;;;;;;;;;5045653;28;19945;-66
2023/10/26 06:41:47;;;;;;;;;;;;;;;;;;5043121;28;19960;-66
2023/10/26 06:44:12;;;;;;;;;;;;;;;;;;5044054;28;20276;-66
2023/10/26 06:46:38;;;;;;;;;;;;;;;;;;5049460;28;19932;-67
2023/10/26 06:49:04;;;;;;;;;;;;;;;;;;5041377;28;19991;-67
2023/10/26 06:51:30;;;;;;;;;;;;;;;;;;5042275;28;19964;-67
2023/10/26 06:53:56;;;;;;;;;;;;;;;;;;5051184;28;19921;-67
2023/10/26 06:56:22;;;;;;;;;;;;;;;;;;5040210;28;20317;-67
2023/10/26 06:58:48;;;;;;;;;;;;;;;;;;5041747;28;20011;-66
2023/10/26 07:01:14;;;;;;;;;;;;;;;;;;5056057;28;19913;-66
2023/10/26 07:03:40;;;;;;;;;;;;;;;;;;5052468;28;20296;-66
2023/10/26 07:06:06;;;;;;;;;;;;;;;;;;5041679;28;19940;-66
2023/10/26 07:08:32;;;;;;;;;;;;;;;;;;5045173;28;20023;-66
2023/10/26 07:10:59;;;;;;;;;;;;;;;;;;5045756;28;19924;-66
2023/10/26 07:13:25;;;;;;;;;;;;;;;;;;5050436;28;19999;-66
2023/10/26 07:15:51;;;;;;;;;;;;;;;;;;5040629;28;20420;-66
2023/10/26 07:18:18;;;;;;;;;;;;;;;;;;5049345;28;19917;-66
2023/10/26 07:20:44;;;;;;;;;;;;;;;;;;5038714;28;19917;-66
2023/10/26 07:23:10;;;;;;;;;;;;;;;;;;5041755;28;19921;-66
2023/10/26 07:25:36;;;;;;;;;;;;;;;;;;5033387;28;20333;-66
2023/10/26 07:28:02;;;;;;;;;;;;;;;;;;5039951;28;19913;-66
2023/10/26 07:30:29;;;;;;;;;;;;;;;;;;5046227;28;21562;-67
2023/10/26 07:32:55;;;;;;;;;;;;;;;;;;5047596;28;20313;-66
2023/10/26 07:35:21;;;;;;;;;;;;;;;;;;5038963;28;19955;-66
2023/10/26 07:37:47;;;;;;;;;;;;;;;;;;5043424;28;19913;-67
2023/10/26 07:40:13;;;;;;;;;;;;;;;;;;5043785;28;20267;-66
2023/10/26 07:42:39;;;;;;;;;;;;;;;;;;5048180;28;19917;-66
2023/10/26 07:45:06;;;;;;;;;;;;;;;;;;5047376;28;19912;-66
2023/10/26 07:47:32;;;;;;;;;;;;;;;;;;5049347;28;19913;-66
2023/10/26 07:49:58;;;;;;;;;;;;;;;;;;5049577;28;19940;-66
2023/10/26 07:52:24;;;;;;;;;;;;;;;;;;5049475;28;20368;-66
2023/10/26 07:54:50;;;;;;;;;;;;;;;;;;5047535;28;19924;-67
2023/10/26 07:57:16;;;;;;;;;;;;;;;;;;5039433;28;19952;-67
2023/10/26 07:59:42;;;;;;;;;;;;;;;;;;5041340;28;20376;-67
2023/10/26 08:02:08;;;;;;;;;;;;;;;;;;5050691;28;19909;-65
2023/10/26 08:04:34;;;;;;;;;;;;;;;;;;5044721;28;20606;-65
2023/10/26 08:07:00;;;;;;;;;;;;;;;;;;5046360;28;20003;-65
2023/10/26 08:09:26;;;;;;;;;;;;;;;;;;5048856;28;19913;-66
2023/10/26 08:11:52;;;;;;;;;;;;;;;;;;5044689;28;19986;-66
2023/10/26 08:14:18;;;;;;;;;;;;;;;;;;5045532;28;19913;-66
2023/10/26 08:16:44;;;;;;;;;;;;;;;;;;5039244;28;20011;-65
2023/10/26 08:19:10;;;;;;;;;;;;;;;;;;5039458;28;19920;-66
2023/10/26 08:21:36;;;;;;;;;;;;;;;;;;5046779;28;19913;-66
2023/10/26 08:24:02;;;;;;;;;;;;;;;;;;5050297;28;19932;-65
2023/10/26 08:26:28;;;;;;;;;;;;;;;;;;5035294;28;20403;-65
2023/10/26 08:28:54;;;;;;;;;;;;;;;;;;5042613;28;19943;-66
2023/10/26 08:31:20;;;;;;;;;;;;;;;;;;5046114;28;19929;-67
2023/10/26 08:33:46;;;;;;;;;;;;;;;;;;5043057;28;19935;-66
2023/10/26 08:36:12;;;;;;;;;;;;;;;;;;5037990;28;19952;-65
2023/10/26 08:38:38;;;;;;;;;;;;;;;;;;5035134;28;20619;-66
2023/10/26 08:41:04;;;;;;;;;;;;;;;;;;5035923;28;19952;-66
2023/10/26 08:43:30;;;;;;;;;;;;;;;;;;5047530;28;20451;-66
2023/10/26 08:45:56;;;;;;;;;;;;;;;;;;5046420;28;19955;-66
2023/10/26 08:48:22;;;;;;;;;;;;;;;;;;5043152;28;19956;-65
2023/10/26 08:50:48;;;;;;;;;;;;;;;;;;5040865;28;20444;-65
2023/10/26 08:53:14;;;;;;;;;;;;;;;;;;5039325;28;19997;-65
2023/10/26 08:55:40;;;;;;;;;;;;;;;;;;5045569;28;19923;-65
2023/10/26 08:58:06;;;;;;;;;;;;;;;;;;5044028;28;19952;-65
2023/10/26 09:00:32;;;;;;;;;;;;;;;;;;5043147;28;19917;-65
2023/10/26 09:02:58;;;;;;;;;;;;;;;;;;5051170;28;19921;-66
2023/10/26 09:05:24;;;;;;;;;;;;;;;;;;5051631;28;20446;-66
2023/10/26 09:07:51;;;;;;;;;;;;;;;;;;5048373;28;19974;-65
2023/10/26 09:10:17;;;;;;;;;;;;;;;;;;5043129;28;20335;-65
2023/10/26 09:12:43;;;;;;;;;;;;;;;;;;5039841;28;19916;-65
2023/10/26 09:15:10;;;;;;;;;;;;;;;;;;5049926;28;19921;-65
2023/10/26 09:17:36;;;;;;;;;;;;;;;;;;5047219;28;20015;-65
2023/10/26 09:20:02;;;;;;;;;;;;;;;;;;5052849;28;19977;-65
2023/10/26 09:22:28;;;;;;;;;;;;;;;;;;5053913;28;19979;-65
2023/10/26 09:24:54;;;;;;;;;;;;;;;;;;5030741;28;19917;-65
2023/10/26 09:27:20;;;;;;;;;;;;;;;;;;5021329;28;19918;-65
2023/10/26 09:29:47;;;;;;;;;;;;;;;;;;5031029;28;20364;-65
2023/10/26 09:32:13;;;;;;;;;;;;;;;;;;5027783;28;19921;-65
2023/10/26 09:34:40;;;;;;;;;;;;;;;;;;5028795;28;19935;-66
2023/10/26 09:37:06;;;;;;;;;;;;;;;;;;5029581;28;19921;-65
2023/10/26 09:39:31;;;;;;;;;;;;;;;;;;5029393;28;20020;-66
2023/10/26 09:41:59;;;;;;;;;;;;;;;;;;5025445;28;20365;-66
2023/10/26 09:44:24;;;;;;;;;;;;;;;;;;5015067;28;19988;-65
2023/10/26 09:46:50;;;;;;;;;;;;;;;;;;5024705;28;20103;-65
2023/10/26 09:49:16;;;;;;;;;;;;;;;;;;5029840;28;19951;-65
2023/10/26 09:51:42;;;;;;;;;;;;;;;;;;5026179;28;19963;-65
2023/10/26 09:54:08;;;;;;;;;;;;;;;;;;5028960;28;20377;-65
2023/10/26 09:56:34;;;;;;;;;;;;;;;;;;5032597;28;20025;-65
2023/10/26 09:59:00;;;;;;;;;;;;;;;;;;5027677;28;19945;-65
2023/10/26 10:01:26;;;;;;;;;;;;;;;;;;5030813;28;19970;-65
2023/10/26 10:03:53;;;;;;;;;;;;;;;;;;5031412;28;19956;-65
2023/10/26 10:06:18;;;;;;;;;;;;;;;;;;5027966;28;20395;-65
2023/10/26 10:08:44;;;;;;;;;;;;;;;;;;5031125;28;20018;-65
2023/10/26 10:11:10;;;;;;;;;;;;;;;;;;5023687;28;19917;-65
2023/10/26 10:13:36;;;;;;;;;;;;;;;;;;5030365;28;20483;-65
2023/10/26 10:16:02;;;;;;;;;;;;;;;;;;5030345;28;19913;-65
2023/10/26 10:18:28;;;;;;;;;;;;;;;;;;5026511;28;19920;-65
2023/10/26 10:20:54;;;;;;;;;;;;;;;;;;5026547;28;19913;-65
2023/10/26 10:23:20;;;;;;;;;;;;;;;;;;5026247;28;19920;-63
2023/10/26 10:25:46;;;;;;;;;;;;;;;;;;5050432;28;20409;-63
2023/10/26 10:28:12;;;;;;;;;;;;;;;;;;5050391;28;19921;-62
2023/10/26 10:30:38;;;;;;;;;;;;;;;;;;5050807;28;19931;-62
2023/10/26 10:33:04;;;;;;;;;;;;;;;;;;5051833;28;19999;-62
2023/10/26 10:35:30;;;;;;;;;;;;;;;;;;5050723;28;20299;-62
2023/10/26 10:37:56;;;;;;;;;;;;;;;;;;5044180;28;19927;-62
2023/10/26 10:40:22;;;;;;;;;;;;;;;;;;5049950;28;19983;-63
2023/10/26 10:42:48;;;;;;;;;;;;;;;;;;5046146;28;19913;-62
2023/10/26 10:45:14;;;;;;;;;;;;;;;;;;5046238;28;19913;-62
2023/10/26 10:47:40;;;;;;;;;;;;;;;;;;5043622;28;20019;-63
2023/10/26 10:50:05;;;;;;;;;;;;;;;;;;5047806;28;20440;-63
2023/10/26 10:52:31;;;;;;;;;;;;;;;;;;5053952;28;19964;-65
2023/10/26 10:54:57;;;;;;;;;;;;;;;;;;5049196;28;19928;-63
2023/10/26 10:57:23;;;;;;;;;;;;;;;;;;5044213;28;19912;-64
2023/10/26 10:59:49;;;;;;;;;;;;;;;;;;5041066;28;19963;-62
2023/10/26 11:02:15;;;;;;;;;;;;;;;;;;5048275;28;19952;-62
2023/10/26 11:04:41;;;;;;;;;;;;;;;;;;5047300;28;19999;-62
2023/10/26 11:07:07;;;;;;;;;;;;;;;;;;5047960;28;19962;-63
2023/10/26 11:09:37;;;;;;;;;;;;;;;;;;5050583;28;20426;-63
2023/10/26 11:12:03;;;;;;;;;;;;;;;;;;5039715;28;20357;-63
2023/10/26 11:14:29;;;;;;;;;;;;;;;;;;5048731;28;19960;-63
2023/10/26 11:16:55;;;;;;;;;;;;;;;;;;5043623;28;19916;-62
2023/10/26 11:19:21;;;;;;;;;;;;;;;;;;5045782;28;20422;-62
2023/10/26 11:21:47;;;;;;;;;;;;;;;;;;5050644;28;19913;-63
2023/10/26 11:24:13;;;;;;;;;;;;;;;;;;5048695;28;20007;-62
2023/10/26 11:26:39;;;;;;;;;;;;;;;;;;5051173;28;20102;-63
2023/10/26 11:29:05;;;;;;;;;;;;;;;;;;5044246;28;19964;-62
2023/10/26 11:31:31;;;;;;;;;;;;;;;;;;5053206;28;19922;-62
2023/10/26 11:33:57;;;;;;;;;;;;;;;;;;5043041;28;20278;-65
2023/10/26 11:36:23;;;;;;;;;;;;;;;;;;5031757;28;20344;-65
2023/10/26 11:38:49;;;;;;;;;;;;;;;;;;5048584;28;20038;-65
2023/10/26 11:41:15;;;;;;;;;;;;;;;;;;5051338;28;19916;-65
2023/10/26 11:43:41;;;;;;;;;;;;;;;;;;5043994;28;19959;-65
2023/10/26 11:46:07;;;;;;;;;;;;;;;;;;5041819;28;19913;-65
2023/10/26 11:48:33;;;;;;;;;;;;;;;;;;5036501;28;19955;-65
2023/10/26 11:50:59;;;;;;;;;;;;;;;;;;5048021;28;19971;-65
2023/10/26 11:53:26;;;;;;;;;;;;;;;;;;5030664;28;20376;-65
2023/10/26 11:55:52;;;;;;;;;;;;;;;;;;5049056;28;20663;-65
2023/10/26 11:58:18;;;;;;;;;;;;;;;;;;5047265;28;19916;-65
2023/10/26 12:00:44;;;;;;;;;;;;;;;;;;5043811;28;19951;-65
2023/10/26 12:03:10;;;;;;;;;;;;;;;;;;5046101;28;19991;-65
2023/10/26 12:05:36;;;;;;;;;;;;;;;;;;5040476;28;20021;-65
2023/10/26 12:08:02;;;;;;;;;;;;;;;;;;5042482;28;20070;-65
2023/10/26 12:10:28;;;;;;;;;;;;;;;;;;5046940;28;20077;-65
2023/10/26 12:12:53;;;;;;;;;;;;;;;;;;5039966;28;20281;-65
2023/10/26 12:15:19;;;;;;;;;;;;;;;;;;5047833;28;19921;-65
2023/10/26 12:17:45;;;;;;;;;;;;;;;;;;5051176;28;19920;-65
2023/10/26 12:20:11;;;;;;;;;;;;;;;;;;5049154;28;19940;-65
2023/10/26 12:22:38;;;;;;;;;;;;;;;;;;5042012;28;19920;-65
2023/10/26 12:25:06;;;;;;;;;;;;;;;;;;5048175;28;20447;-65
2023/10/26 12:27:32;;;;;;;;;;;;;;;;;;5041711;28;20036;-65
2023/10/26 12:29:58;;;;;;;;;;;;;;;;;;5046320;28;20428;-65
2023/10/26 12:32:24;;;;;;;;;;;;;;;;;;5045234;28;19923;-66
2023/10/26 12:34:50;;;;;;;;;;;;;;;;;;5048951;28;20284;-65
2023/10/26 12:37:16;;;;;;;;;;;;;;;;;;5045105;28;19951;-65
2023/10/26 12:39:42;;;;;;;;;;;;;;;;;;5054124;28;19920;-65
2023/10/26 12:42:07;;;;;;;;;;;;;;;;;;5055126;28;19919;-62
2023/10/26 12:44:33;;;;;;;;;;;;;;;;;;5050769;28;19967;-62
2023/10/26 12:46:59;;;;;;;;;;;;;;;;;;5047267;28;20066;-62
2023/10/26 12:49:25;;;;;;;;;;;;;;;;;;5042652;28;19964;-63
2023/10/26 12:51:51;;;;;;;;;;;;;;;;;;5044756;28;20279;-62
2023/10/26 12:54:18;;;;;;;;;;;;;;;;;;5050725;28;19951;-62
2023/10/26 12:56:43;;;;;;;;;;;;;;;;;;5046528;28;19920;-62
2023/10/26 12:59:09;;;;;;;;;;;;;;;;;;5047986;28;20696;-63
2023/10/26 13:01:35;;;;;;;;;;;;;;;;;;5054427;28;19908;-62
2023/10/26 13:04:01;;;;;;;;;;;;;;;;;;5054397;28;19912;-62
2023/10/26 13:06:27;;;;;;;;;;;;;;;;;;5054451;28;20006;-62
2023/10/26 13:08:53;;;;;;;;;;;;;;;;;;5034110;28;19913;-62
2023/10/26 13:11:19;;;;;;;;;;;;;;;;;;5044951;28;20409;-64
2023/10/26 13:13:45;;;;;;;;;;;;;;;;;;5046119;28;19963;-62
2023/10/26 13:16:11;;;;;;;;;;;;;;;;;;5053697;28;19909;-62
2023/10/26 13:18:37;;;;;;;;;;;;;;;;;;5050589;28;20019;-62
2023/10/26 13:21:03;;;;;;;;;;;;;;;;;;5042933;28;20430;-62
2023/10/26 13:23:28;;;;;;;;;;;;;;;;;;5049183;28;20008;-62
2023/10/26 13:25:54;;;;;;;;;;;;;;;;;;5042451;28;19967;-62
2023/10/26 13:28:20;;;;;;;;;;;;;;;;;;5037707;28;19917;-63
2023/10/26 13:30:46;;;;;;;;;;;;;;;;;;5043853;28;19932;-62
2023/10/26 13:33:12;;;;;;;;;;;;;;;;;;5042554;28;19955;-65
2023/10/26 13:35:38;;;;;;;;;;;;;;;;;;5052786;28;19909;-63
2023/10/26 13:38:06;;;;;;;;;;;;;;;;;;5052846;28;19960;-62
2023/10/26 13:40:32;;;;;;;;;;;;;;;;;;5045970;28;19936;-63
2023/10/26 13:42:58;;;;;;;;;;;;;;;;;;5053464;28;19913;-62
2023/10/26 13:45:24;;;;;;;;;;;;;;;;;;5044825;28;20070;-62
2023/10/26 13:47:50;;;;;;;;;;;;;;;;;;5045538;28;19978;-64
2023/10/26 13:50:16;;;;;;;;;;;;;;;;;;5040156;28;20438;-62
2023/10/26 13:52:42;;;;;;;;;;;;;;;;;;5044022;28;19917;-65
2023/10/26 13:55:07;;;;;;;;;;;;;;;;;;5049137;28;20341;-65
2023/10/26 13:57:33;;;;;;;;;;;;;;;;;;5048742;28;19936;-65
2023/10/26 13:59:59;;;;;;;;;;;;;;;;;;5044889;28;19921;-66
2023/10/26 14:02:26;;;;;;;;;;;;;;;;;;5045683;28;19936;-65
2023/10/26 14:04:52;;;;;;;;;;;;;;;;;;5044186;28;20288;-65
2023/10/26 14:07:18;;;;;;;;;;;;;;;;;;5050831;28;19912;-65
2023/10/26 14:09:44;;;;;;;;;;;;;;;;;;5053086;28;19909;-65
2023/10/26 14:12:10;;;;;;;;;;;;;;;;;;5048337;28;20055;-65
2023/10/26 14:14:35;;;;;;;;;;;;;;;;;;5040795;28;20008;-65
2023/10/26 14:17:03;;;;;;;;;;;;;;;;;;5049619;28;20724;-66
2023/10/26 14:19:29;;;;;;;;;;;;;;;;;;5044841;28;20280;-65
2023/10/26 14:21:55;;;;;;;;;;;;;;;;;;5040704;28;19921;-65
2023/10/26 14:24:21;;;;;;;;;;;;;;;;;;5051596;28;19921;-65
2023/10/26 14:26:47;;;;;;;;;;;;;;;;;;5051585;28;20300;-65
2023/10/26 14:29:13;;;;;;;;;;;;;;;;;;5051548;28;19995;-65
2023/10/26 14:31:39;;;;;;;;;;;;;;;;;;5047568;28;19964;-65
2023/10/26 14:34:05;;;;;;;;;;;;;;;;;;5051674;28;19967;-65
2023/10/26 14:36:31;;;;;;;;;;;;;;;;;;5050335;28;19917;-65
2023/10/26 14:38:57;;;;;;;;;;;;;;;;;;5050488;28;19931;-65
2023/10/26 14:41:23;;;;;;;;;;;;;;;;;;5050770;28;20013;-65
2023/10/26 14:43:49;;;;;;;;;;;;;;;;;;5048744;28;19985;-65
2023/10/26 14:46:15;;;;;;;;;;;;;;;;;;5047637;28;20373;-65
2023/10/26 14:48:41;;;;;;;;;;;;;;;;;;5051139;28;19971;-65
2023/10/26 14:51:07;;;;;;;;;;;;;;;;;;5030310;28;19952;-65
2023/10/26 14:53:33;;;;;;;;;;;;;;;;;;5048571;28;19913;-65
2023/10/26 14:55:59;;;;;;;;;;;;;;;;;;5047332;28;20399;-65
2023/10/26 14:58:25;;;;;;;;;;;;;;;;;;5029505;28;19999;-65
2023/10/26 15:00:51;;;;;;;;;;;;;;;;;;5048932;28;20006;-65
2023/10/26 15:03:17;;;;;;;;;;;;;;;;;;5048272;28;19920;-66
2023/10/26 15:05:43;;;;;;;;;;;;;;;;;;5044730;28;19960;-66
2023/10/26 15:08:09;;;;;;;;;;;;;;;;;;5046205;28;19995;-66
2023/10/26 15:10:37;;;;;;;;;;;;;;;;;;5047819;28;20011;-66
2023/10/26 15:13:03;;;;;;;;;;;;;;;;;;5048576;28;19913;-66
2023/10/26 15:15:29;;;;;;;;;;;;;;;;;;5050799;28;20274;-66
2023/10/26 15:17:55;;;;;;;;;;;;;;;;;;5029815;28;19955;-66
2023/10/26 15:20:21;;;;;;;;;;;;;;;;;;5046809;28;19947;-66
2023/10/26 15:22:47;;;;;;;;;;;;;;;;;;5048325;28;20000;-66
2023/10/26 15:25:13;;;;;;;;;;;;;;;;;;5048960;28;20000;-66
2023/10/26 15:27:38;;;;;;;;;;;;;;;;;;5047522;28;20284;-67
2023/10/26 15:30:04;;;;;;;;;;;;;;;;;;5047787;28;19913;-66
2023/10/26 15:32:30;;;;;;;;;;;;;;;;;;5048838;28;19971;-66
2023/10/26 15:34:56;;;;;;;;;;;;;;;;;;5048256;28;19913;-66
2023/10/26 15:37:22;;;;;;;;;;;;;;;;;;5042117;28;19924;-66
2023/10/26 15:39:53;;;;;;;;;;;;;;;;;;5049057;28;19919;-66
2023/10/26 15:42:18;;;;;;;;;;;;;;;;;;5042707;28;20333;-66
2023/10/26 15:44:50;;;;;;;;;;;;;;;;;;5040310;28;19955;-66
2023/10/26 15:47:16;;;;;;;;;;;;;;;;;;5046014;28;19960;-66
2023/10/26 15:49:43;;;;;;;;;;;;;;;;;;5051908;28;20325;-66
2023/10/26 15:52:09;;;;;;;;;;;;;;;;;;5049615;28;20012;-66
2023/10/26 15:54:35;;;;;;;;;;;;;;;;;;5046879;28;19944;-66
2023/10/26 15:57:02;;;;;;;;;;;;;;;;;;5043197;28;19987;-66
2023/10/26 15:59:28;;;;;;;;;;;;;;;;;;5039772;28;19938;-66
2023/10/26 16:01:53;;;;;;;;;;;;;;;;;;5050852;28;19984;-66
2023/10/26 16:04:19;;;;;;;;;;;;;;;;;;5048943;28;19955;-66
2023/10/26 16:06:46;;;;;;;;;;;;;;;;;;5049683;28;20322;-66
2023/10/26 16:09:12;;;;;;;;;;;;;;;;;;5050781;28;19951;-66
2023/10/26 16:11:38;;;;;;;;;;;;;;;;;;5046575;28;19963;-66
2023/10/26 16:14:04;;;;;;;;;;;;;;;;;;5048241;28;20017;-68
2023/10/26 16:16:30;;;;;;;;;;;;;;;;;;5043051;28;19951;-67
2023/10/26 16:18:56;;;;;;;;;;;;;;;;;;5044669;28;19921;-68
2023/10/26 16:21:22;;;;;;;;;;;;;;;;;;5054705;28;20376;-67
2023/10/26 16:23:48;;;;;;;;;;;;;;;;;;5045410;28;19948;-68
2023/10/26 16:26:14;;;;;;;;;;;;;;;;;;5048012;28;19956;-68
2023/10/26 16:28:40;;;;;;;;;;;;;;;;;;5067604;28;19941;-68
2023/10/26 16:31:06;;;;;;;;;;;;;;;;;;5046623;28;20403;-68
2023/10/26 16:33:32;;;;;;;;;;;;;;;;;;5047757;28;19913;-68
2023/10/26 16:35:58;;;;;;;;;;;;;;;;;;5037374;28;19963;-68
2023/10/26 16:38:23;;;;;;;;;;;;;;;;;;5052813;28;20022;-68